Time;durP1;ratioP1;P1;durP2;ratioP2;P2;SDS_P1;SDS_P2;PMS_P1;PMS_P2;Temp;Humidity;BMP_temperature;BMP_pressure;BME280_temperature;BME280_humidity;BME280_pressure;Samples;Min_cycle;Max_cycle;Signal;HPM_P1;HPM_P2
2022/10/15 00:02:35;;;;;;;43.87;28.10;;;;;;;8.02;100.00;97579.59;6086185;29;20235;-70
2022/10/15 00:05:38;;;;;;;44.73;29.77;;;;;;;8.10;100.00;97584.28;6081155;29;20247;-70
2022/10/15 00:08:42;;;;;;;42.37;30.37;;;;;;;8.19;100.00;97582.78;6085769;29;20627;-70
2022/10/15 00:11:46;;;;;;;47.60;31.63;;;;;;;8.24;100.00;97570.16;6083817;29;20243;-72
2022/10/15 00:14:49;;;;;;;41.90;27.80;;;;;;;8.26;100.00;97576.16;6083201;29;20761;-72
2022/10/15 00:17:51;;;;;;;42.17;28.90;;;;;;;8.28;100.00;97571.63;6082355;29;20242;-70
2022/10/15 00:20:53;;;;;;;44.03;29.67;;;;;;;8.32;100.00;97576.56;6086793;29;20231;-72
2022/10/15 00:23:55;;;;;;;43.27;28.33;;;;;;;8.35;100.00;97570.25;6084184;29;20228;-72
2022/10/15 00:26:57;;;;;;;43.03;29.13;;;;;;;8.38;100.00;97567.41;6082937;29;20235;-72
2022/10/15 00:29:59;;;;;;;41.33;29.60;;;;;;;8.39;100.00;97558.53;6075598;29;20278;-71
2022/10/15 00:33:01;;;;;;;39.50;27.40;;;;;;;8.39;100.00;97550.66;6050659;29;20250;-72
2022/10/15 00:36:09;;;;;;;38.30;26.73;;;;;;;8.40;100.00;97547.91;6086315;29;20547;-71
2022/10/15 00:39:11;;;;;;;44.63;29.43;;;;;;;8.43;100.00;97552.13;6085291;29;20216;-72
2022/10/15 00:42:14;;;;;;;41.40;27.73;;;;;;;8.42;100.00;97546.00;6084163;29;20231;-72
2022/10/15 00:45:16;;;;;;;44.47;28.27;;;;;;;8.42;100.00;97539.91;6085514;29;20703;-72
2022/10/15 00:48:17;;;;;;;41.00;27.03;;;;;;;8.40;100.00;97540.03;6085182;29;20241;-71
2022/10/15 00:51:21;;;;;;;39.33;26.97;;;;;;;8.37;100.00;97545.53;6085456;29;20233;-72
2022/10/15 00:54:26;;;;;;;33.93;24.57;;;;;;;8.36;100.00;97538.59;6065694;29;20240;-72
2022/10/15 00:57:32;;;;;;;36.97;25.37;;;;;;;8.35;100.00;97534.28;6086902;29;20708;-71
2022/10/15 01:00:34;;;;;;;35.30;25.47;;;;;;;8.33;100.00;97533.53;6052602;29;20240;-72
2022/10/15 01:03:36;;;;;;;38.87;25.97;;;;;;;8.29;100.00;97533.84;6084288;29;20690;-71
2022/10/15 01:06:38;;;;;;;35.10;25.27;;;;;;;8.26;100.00;97524.41;6078317;29;20240;-72
2022/10/15 01:09:42;;;;;;;36.77;25.30;;;;;;;8.25;100.00;97517.47;6064673;29;20239;-71
2022/10/15 01:13:06;;;;;;;38.10;24.70;;;;;;;8.26;100.00;97516.53;6068800;29;20734;-71
2022/10/15 01:16:22;;;;;;;34.83;23.70;;;;;;;8.25;100.00;97520.09;6067908;29;20232;-71
2022/10/15 01:19:57;;;;;;;38.10;25.03;;;;;;;8.29;100.00;97518.91;6085401;29;20245;-71
2022/10/15 01:23:05;;;;;;;40.30;25.93;;;;;;;8.32;100.00;97510.00;6084568;29;20243;-72
2022/10/15 01:26:46;;;;;;;39.50;26.63;;;;;;;8.36;100.00;97495.69;6062055;29;20227;-71
2022/10/15 01:30:04;;;;;;;37.93;26.43;;;;;;;8.36;100.00;97493.03;6069082;29;20243;-71
2022/10/15 01:33:21;;;;;;;34.27;25.07;;;;;;;8.38;100.00;97491.16;6068155;29;20227;-71
2022/10/15 01:36:39;;;;;;;37.70;26.50;;;;;;;8.42;100.00;97484.69;6051287;29;20237;-71
2022/10/15 01:39:50;;;;;;;39.20;26.17;;;;;;;8.46;100.00;97494.03;6085410;29;20228;-71
2022/10/15 01:42:58;;;;;;;40.63;26.77;;;;;;;8.48;100.00;97479.78;6082819;29;20779;-72
2022/10/15 01:46:16;;;;;;;40.57;27.97;;;;;;;8.50;100.00;97491.03;6067813;29;20275;-72
2022/10/15 01:49:37;;;;;;;42.50;27.73;;;;;;;8.53;100.00;97482.09;6078432;29;20310;-71
2022/10/15 01:52:41;;;;;;;38.93;26.40;;;;;;;8.55;100.00;97472.31;6084349;29;20232;-73
2022/10/15 01:55:46;;;;;;;38.10;26.20;;;;;;;8.59;100.00;97465.00;6077366;29;20277;-71
2022/10/15 01:58:51;;;;;;;39.77;27.23;;;;;;;8.61;100.00;97463.94;6062905;29;20240;-71
2022/10/15 02:01:54;;;;;;;37.77;26.77;;;;;;;8.64;100.00;97466.34;6082129;29;20228;-71
2022/10/15 02:04:59;;;;;;;41.67;27.30;;;;;;;8.67;100.00;97460.88;6082767;29;20236;-72
2022/10/15 02:08:27;;;;;;;38.47;26.87;;;;;;;8.70;100.00;97463.22;6067384;29;20239;-72
2022/10/15 02:11:46;;;;;;;41.37;25.80;;;;;;;8.73;100.00;97470.06;6066711;29;20239;-72
2022/10/15 02:15:25;;;;;;;39.37;27.13;;;;;;;8.77;100.00;97453.09;6082799;29;20308;-72
2022/10/15 02:18:51;;;;;;;42.33;26.70;;;;;;;8.78;100.00;97439.00;6080294;29;20236;-71
2022/10/15 02:22:20;;;;;;;42.37;27.43;;;;;;;8.83;100.00;97448.19;6063718;29;20239;-72
2022/10/15 02:25:26;;;;;;;42.90;27.03;;;;;;;8.84;100.00;97435.88;6069514;29;20243;-72
2022/10/15 02:28:30;;;;;;;39.70;27.07;;;;;;;8.84;100.00;97435.88;6074350;29;20790;-71
2022/10/15 02:31:36;;;;;;;35.67;25.57;;;;;;;8.85;100.00;97438.41;6088908;29;20228;-72
2022/10/15 02:34:43;;;;;;;36.93;26.60;;;;;;;8.83;100.00;97428.94;6088236;29;20232;-72
2022/10/15 02:37:48;;;;;;;42.87;28.47;;;;;;;8.82;100.00;97428.09;6071180;29;20616;-72
2022/10/15 02:40:53;;;;;;;40.30;26.93;;;;;;;8.80;100.00;97437.06;6072087;29;20228;-72
2022/10/15 02:43:55;;;;;;;35.50;25.20;;;;;;;8.79;100.00;97420.44;6086292;29;20244;-71
2022/10/15 02:46:59;;;;;;;41.13;25.33;;;;;;;8.77;100.00;97417.09;6075115;29;20264;-71
2022/10/15 02:50:02;;;;;;;38.43;26.40;;;;;;;8.73;100.00;97412.19;6070610;29;20243;-72
2022/10/15 02:53:05;;;;;;;38.13;25.67;;;;;;;8.71;100.00;97414.09;6088194;29;20323;-72
2022/10/15 02:56:08;;;;;;;32.50;24.17;;;;;;;8.70;100.00;97412.41;6086231;29;20235;-72
2022/10/15 02:59:10;;;;;;;40.83;27.27;;;;;;;8.70;100.00;97413.25;6055606;29;20320;-71
2022/10/15 03:02:13;;;;;;;41.77;27.40;;;;;;;8.71;100.00;97407.03;6063106;29;20370;-72
2022/10/15 03:05:20;;;;;;;42.13;28.77;;;;;;;8.72;100.00;97408.72;6072467;29;20235;-72
2022/10/15 03:08:22;;;;;;;40.53;27.77;;;;;;;8.72;100.00;97411.34;6071120;29;20240;-72
2022/10/15 03:11:24;;;;;;;41.87;28.90;;;;;;;8.73;100.00;97402.50;6071607;29;20235;-71
2022/10/15 03:14:27;;;;;;;44.83;30.53;;;;;;;8.75;100.00;97397.97;6086087;29;20348;-71
2022/10/15 03:17:34;;;;;;;42.67;28.80;;;;;;;8.77;100.00;97395.22;6088792;29;20228;-72
2022/10/15 03:20:37;;;;;;;44.70;30.90;;;;;;;8.76;100.00;97389.13;6069970;29;20296;-72
2022/10/15 03:23:39;;;;;;;45.70;31.00;;;;;;;8.79;100.00;97398.53;6070403;29;20270;-71
2022/10/15 03:26:47;;;;;;;41.77;29.70;;;;;;;8.78;100.00;97391.63;6084668;29;20667;-72
2022/10/15 03:29:49;;;;;;;45.77;30.63;;;;;;;8.79;100.00;97390.66;6086910;29;20227;-72
2022/10/15 03:32:51;;;;;;;47.40;31.60;;;;;;;8.78;100.00;97389.00;6070038;29;20345;-72
2022/10/15 03:35:53;;;;;;;49.60;32.10;;;;;;;8.79;100.00;97380.13;6062369;29;20380;-72
2022/10/15 03:38:55;;;;;;;46.27;32.70;;;;;;;8.80;100.00;97387.91;6084651;29;20228;-72
2022/10/15 03:41:57;;;;;;;52.67;33.73;;;;;;;8.81;100.00;97378.22;6084575;29;20236;-72
2022/10/15 03:45:08;;;;;;;47.63;32.30;;;;;;;8.80;100.00;97379.16;6062926;29;20244;-71
2022/10/15 03:48:10;;;;;;;55.07;35.93;;;;;;;8.81;100.00;97388.75;6082863;29;20213;-72
2022/10/15 03:51:12;;;;;;;52.13;34.30;;;;;;;8.83;100.00;97373.69;6088002;29;20242;-72
2022/10/15 03:54:21;;;;;;;51.33;35.73;;;;;;;8.84;100.00;97384.09;6085120;29;20275;-72
2022/10/15 03:57:25;;;;;;;51.10;35.13;;;;;;;8.86;100.00;97374.28;6086213;29;20235;-71
2022/10/15 04:00:33;;;;;;;54.23;35.93;;;;;;;8.86;100.00;97376.91;6082967;29;20279;-72
2022/10/15 04:03:37;;;;;;;56.37;37.23;;;;;;;8.89;100.00;97370.56;6080501;29;20243;-72
2022/10/15 04:06:39;;;;;;;53.37;36.60;;;;;;;8.91;100.00;97376.53;6068279;29;20315;-73
2022/10/15 04:09:46;;;;;;;52.47;36.40;;;;;;;8.92;100.00;97374.75;6087206;29;20237;-72
2022/10/15 04:13:08;;;;;;;57.50;37.87;;;;;;;8.94;100.00;97364.94;6069377;29;20244;-72
2022/10/15 04:16:14;;;;;;;53.90;36.03;;;;;;;8.94;100.00;97370.22;6068144;29;20723;-72
2022/10/15 04:19:16;;;;;;;58.13;38.63;;;;;;;8.96;100.00;97361.25;6071437;29;20239;-73
2022/10/15 04:22:27;;;;;;;55.80;36.63;;;;;;;8.98;100.00;97364.59;6066001;29;20236;-72
2022/10/15 04:25:35;;;;;;;59.63;36.53;;;;;;;9.02;100.00;97365.19;6084125;29;20327;-72
2022/10/15 04:28:37;;;;;;;58.87;39.43;;;;;;;9.03;100.00;97361.59;6068647;29;20231;-72
2022/10/15 04:31:40;;;;;;;59.53;39.10;;;;;;;9.06;100.00;97356.09;6066943;29;20236;-73
2022/10/15 04:34:45;;;;;;;58.20;39.83;;;;;;;9.07;100.00;97352.50;6068418;29;20239;-72
2022/10/15 04:37:48;;;;;;;57.10;37.27;;;;;;;9.09;100.00;97363.72;6067380;29;20240;-72
2022/10/15 04:41:00;;;;;;;64.00;39.80;;;;;;;9.12;100.00;97364.31;6086075;29;20237;-73
2022/10/15 04:44:14;;;;;;;64.60;39.60;;;;;;;9.13;100.00;97360.75;6067399;29;20232;-73
2022/10/15 04:47:22;;;;;;;59.73;40.00;;;;;;;9.17;100.00;97366.59;6063241;29;20236;-72
2022/10/15 04:50:36;;;;;;;54.73;37.43;;;;;;;9.18;100.00;97369.09;6079944;29;20233;-73
2022/10/15 04:53:52;;;;;;;61.07;38.70;;;;;;;9.21;100.00;97365.38;6081031;29;20235;-72
2022/10/15 04:56:54;;;;;;;59.70;39.47;;;;;;;9.24;100.00;97368.63;6082397;29;20258;-72
2022/10/15 04:59:56;;;;;;;59.28;42.70;;;;;;;9.46;100.00;97373.00;6053951;29;20468;-71
2022/10/15 05:03:07;;;;;;;67.57;42.33;;;;;;;9.42;100.00;97366.31;6077984;29;20241;-72
2022/10/15 05:06:27;;;;;;;54.47;37.93;;;;;;;9.38;100.00;97367.53;6066649;29;20294;-73
2022/10/15 05:09:37;;;;;;;54.60;36.33;;;;;;;9.40;100.00;97378.75;6066711;29;20228;-72
2022/10/15 05:12:45;;;;;;;58.53;38.33;;;;;;;9.40;100.00;97364.75;6077637;29;20719;-72
2022/10/15 05:15:48;;;;;;;48.83;35.70;;;;;;;9.42;100.00;97370.72;6061703;29;20251;-72
2022/10/15 05:18:54;;;;;;;49.27;34.90;;;;;;;9.43;100.00;97370.63;6075504;29;20253;-72
2022/10/15 05:21:56;;;;;;;51.43;36.07;;;;;;;9.44;100.00;97369.66;6060290;29;20797;-72
2022/10/15 05:24:59;;;;;;;55.70;37.07;;;;;;;9.45;100.00;97367.84;6083304;29;20241;-72
2022/10/15 05:28:09;;;;;;;59.23;38.87;;;;;;;9.47;100.00;97372.06;6083707;29;20226;-72
2022/10/15 05:31:14;;;;;;;64.30;39.40;;;;;;;9.50;100.00;97371.78;6067343;29;20232;-73
2022/10/15 05:34:23;;;;;;;56.60;37.77;;;;;;;9.53;100.00;97370.72;6045465;29;20239;-72
2022/10/15 05:37:33;;;;;;;54.97;37.60;;;;;;;9.55;100.00;97372.25;6077728;29;20343;-72
2022/10/15 05:40:35;;;;;;;57.77;38.37;;;;;;;9.57;100.00;97378.25;6078936;29;20228;-72
2022/10/15 05:43:40;;;;;;;59.50;38.57;;;;;;;9.58;100.00;97382.53;6063136;29;20236;-72
2022/10/15 05:46:50;;;;;;;59.90;40.43;;;;;;;9.62;100.00;97380.50;6076020;29;20230;-72
2022/10/15 05:49:56;;;;;;;60.47;40.20;;;;;;;9.65;100.00;97376.78;6081930;29;20227;-72
2022/10/15 05:53:03;;;;;;;62.10;40.83;;;;;;;9.67;100.00;97374.88;6082522;29;20270;-72
2022/10/15 05:56:13;;;;;;;57.70;38.83;;;;;;;9.69;100.00;97376.38;6088925;29;20716;-72
2022/10/15 05:59:15;;;;;;;58.57;40.20;;;;;;;9.72;100.00;97378.78;6086812;29;20232;-72
2022/10/15 06:02:17;;;;;;;65.63;42.07;;;;;;;9.74;100.00;97374.22;6089088;29;20258;-72
2022/10/15 06:05:20;;;;;;;62.93;40.50;;;;;;;9.79;100.00;97381.75;6082864;29;20633;-72
2022/10/15 06:08:22;;;;;;;61.87;42.13;;;;;;;9.83;100.00;97381.38;6080904;29;20229;-71
2022/10/15 06:11:24;;;;;;;63.20;42.10;;;;;;;9.89;100.00;97391.41;6088357;29;20224;-72
2022/10/15 06:14:26;;;;;;;60.00;41.63;;;;;;;9.93;100.00;97394.63;6082942;29;20230;-71
2022/10/15 06:17:28;;;;;;;64.37;43.47;;;;;;;9.97;100.00;97393.44;6084982;29;20749;-71
2022/10/15 06:20:30;;;;;;;63.83;42.10;;;;;;;10.06;100.00;97394.47;6087363;29;20240;-71
2022/10/15 06:23:32;;;;;;;63.60;42.13;;;;;;;10.13;100.00;97401.75;6089044;29;20717;-70
2022/10/15 06:26:34;;;;;;;65.77;42.87;;;;;;;10.19;100.00;97400.41;6084876;29;20222;-71
2022/10/15 06:29:36;;;;;;;64.03;42.40;;;;;;;10.25;100.00;97407.84;6085045;29;20643;-71
2022/10/15 06:32:38;;;;;;;55.57;39.80;;;;;;;10.33;100.00;97403.59;6085720;29;20226;-71
2022/10/15 06:35:41;;;;;;;61.93;40.47;;;;;;;10.38;100.00;97397.94;6085651;29;20616;-71
2022/10/15 06:38:43;;;;;;;61.63;40.67;;;;;;;10.42;100.00;97403.78;6085890;29;20577;-71
2022/10/15 06:41:45;;;;;;;61.97;41.47;;;;;;;10.46;100.00;97403.41;6085223;29;20309;-70
2022/10/15 06:44:47;;;;;;;57.17;40.87;;;;;;;10.48;100.00;97414.63;6085784;29;20237;-71
2022/10/15 06:47:50;;;;;;;59.60;41.73;;;;;;;10.52;100.00;97412.59;6078101;29;20330;-70
2022/10/15 06:50:52;;;;;;;63.10;41.73;;;;;;;10.55;100.00;97417.63;6079104;29;20502;-70
2022/10/15 06:53:54;;;;;;;64.07;42.37;;;;;;;10.59;100.00;97419.84;6078473;29;20231;-70
2022/10/15 06:56:56;;;;;;;59.77;40.93;;;;;;;10.66;100.00;97420.19;6065445;29;20318;-71
2022/10/15 06:59:58;;;;;;;66.37;44.13;;;;;;;10.77;100.00;97421.91;6078334;29;20238;-71
2022/10/15 07:03:04;;;;;;;64.60;43.73;;;;;;;10.82;100.00;97425.00;6075166;29;20233;-70
2022/10/15 07:06:08;;;;;;;59.77;42.27;;;;;;;10.88;100.00;97427.94;6085599;29;20241;-71
2022/10/15 07:09:10;;;;;;;60.43;41.67;;;;;;;10.95;100.00;97421.19;6083723;29;20215;-70
2022/10/15 07:12:12;;;;;;;59.30;41.10;;;;;;;11.02;100.00;97424.13;6075010;29;20211;-70
2022/10/15 07:15:15;;;;;;;60.80;42.17;;;;;;;11.08;100.00;97431.50;6083919;29;20222;-71
2022/10/15 07:18:17;;;;;;;59.70;42.90;;;;;;;11.18;100.00;97436.84;6082494;29;20252;-70
2022/10/15 07:21:19;;;;;;;57.03;41.47;;;;;;;11.22;100.00;97438.25;6084579;29;20728;-71
2022/10/15 07:24:21;;;;;;;62.57;42.67;;;;;;;11.29;100.00;97436.72;6082796;29;20412;-69
2022/10/15 07:27:23;;;;;;;61.57;41.73;;;;;;;11.34;100.00;97448.59;6086215;29;20251;-70
2022/10/15 07:30:28;;;;;;;51.57;37.83;;;;;;;11.44;100.00;97446.81;6084351;29;20242;-71
2022/10/15 07:33:33;;;;;;;52.70;39.37;;;;;;;11.55;100.00;97452.97;6072040;29;20235;-70
2022/10/15 07:36:35;;;;;;;55.67;41.53;;;;;;;11.64;100.00;97452.16;6084147;29;20306;-70
2022/10/15 07:39:37;;;;;;;55.03;39.73;;;;;;;11.72;100.00;97447.03;6084932;29;20234;-71
2022/10/15 07:42:42;;;;;;;51.53;39.27;;;;;;;11.78;100.00;97449.13;6085671;29;20588;-71
2022/10/15 07:45:48;;;;;;;52.03;38.60;;;;;;;11.89;100.00;97453.47;6086406;29;20254;-71
2022/10/15 07:48:50;;;;;;;51.47;38.83;;;;;;;11.93;100.00;97453.09;6087420;29;20388;-71
2022/10/15 07:51:52;;;;;;;53.00;39.07;;;;;;;11.97;100.00;97453.66;6054607;29;20235;-70
2022/10/15 07:54:55;;;;;;;51.93;40.33;;;;;;;12.05;100.00;97457.28;6069961;29;20239;-70
2022/10/15 07:57:57;;;;;;;60.50;40.40;;;;;;;12.14;100.00;97468.84;6065224;29;20243;-69
2022/10/15 08:01:04;;;;;;;47.97;36.17;;;;;;;12.24;100.00;97466.19;6083826;29;20593;-69
2022/10/15 08:04:06;;;;;;;52.60;38.53;;;;;;;12.31;100.00;97457.56;6084736;29;20239;-68
2022/10/15 08:07:09;;;;;;;50.47;38.20;;;;;;;12.36;100.00;97465.09;6083373;29;20235;-68
2022/10/15 08:10:12;;;;;;;51.17;39.33;;;;;;;12.39;100.00;97468.28;6065753;29;20239;-69
2022/10/15 08:13:14;;;;;;;48.93;38.10;;;;;;;-144.22;100.00;60274.75;6082523;29;21326;-69
2022/10/15 08:16:19;;;;;;;51.30;38.63;;;;;;;16.55;100.00;60274.75;6078299;29;20228;-67
2022/10/15 08:19:31;;;;;;;46.70;36.47;;;;;;;16.55;100.00;60274.75;6083532;29;20314;-69
2022/10/15 08:22:33;;;;;;;48.37;35.17;;;;;;;188.01;100.00;60274.75;6063590;29;20580;-69
2022/10/15 08:25:36;;;;;;;49.50;36.57;;;;;;;-144.22;100.00;60274.75;6080684;29;20232;-69
2022/10/15 08:28:38;;;;;;;52.47;39.23;;;;;;;-144.22;100.00;60274.75;6082626;29;20835;-68
2022/10/15 08:31:40;;;;;;;49.07;37.70;;;;;;;-144.22;100.00;60274.75;6085702;29;20471;-69
2022/10/15 08:34:43;;;;;;;44.60;35.57;;;;;;;-144.22;100.00;60274.75;6080002;29;20233;-69
2022/10/15 08:37:46;;;;;;;50.93;37.93;;;;;;;-144.22;100.00;60274.75;6080992;29;20329;-69
2022/10/15 08:40:50;;;;;;;47.37;36.93;;;;;;;188.01;100.00;60274.75;6082455;29;20233;-69
2022/10/15 08:43:52;;;;;;;46.70;35.00;;;;;;;-144.22;100.00;60274.75;6082984;29;20239;-68
2022/10/15 08:47:03;;;;;;;44.17;35.23;;;;;;;-144.22;100.00;60274.75;6078166;29;20224;-68
2022/10/15 08:50:32;;;;;;;40.90;34.37;;;;;;;-144.22;100.00;60274.75;6062435;29;20232;-67
2022/10/15 08:53:41;;;;;;;38.93;33.20;;;;;;;-144.22;100.00;60274.75;6082856;29;20223;-68
2022/10/15 08:56:47;;;;;;;43.57;35.77;;;;;;;-144.22;100.00;60274.75;6072406;29;20724;-69
2022/10/15 09:00:04;;;;;;;38.13;33.47;;;;;;;-144.22;100.00;60274.75;6081677;29;20603;-67
2022/10/15 09:03:35;;;;;;;41.90;33.20;;;;;;;188.01;100.00;60274.75;6061679;29;20228;-69
2022/10/15 09:06:38;;;;;;;45.27;35.23;;;;;;;-144.22;100.00;60274.75;6075363;29;20281;-69
2022/10/15 09:09:51;;;;;;;38.23;31.73;;;;;;;14.08;100.00;60274.75;6073670;29;20235;-68
2022/10/15 09:13:13;;;;;;;39.07;33.33;;;;;;;15.25;100.00;60274.75;6080343;29;20599;-69
2022/10/15 09:16:48;;;;;;;39.37;32.70;;;;;;;-144.22;100.00;60274.75;6078741;29;20570;-69
2022/10/15 09:19:53;;;;;;;44.13;35.33;;;;;;;-144.22;100.00;60274.75;6059693;29;20602;-69
2022/10/15 09:22:55;;;;;;;41.73;32.87;;;;;;;-144.22;100.00;60274.75;6077953;29;20243;-69
2022/10/15 09:26:05;;;;;;;40.67;33.63;;;;;;;-144.22;100.00;60274.75;6079833;29;20224;-68
2022/10/15 09:29:32;;;;;;;37.47;31.83;;;;;;;-144.22;100.00;60274.75;6069709;29;20526;-68
2022/10/15 09:32:49;;;;;;;39.93;31.93;;;;;;;-144.22;100.00;60274.75;6079227;29;20692;-69
2022/10/15 09:36:08;;;;;;;38.03;31.47;;;;;;;-144.22;100.00;60274.75;6075641;29;20232;-68
2022/10/15 09:39:37;;;;;;;36.70;30.97;;;;;;;-144.22;100.00;60274.75;6079513;29;20235;-68
2022/10/15 09:42:41;;;;;;;40.10;31.90;;;;;;;-144.22;100.00;60274.75;6080799;29;20634;-68
2022/10/15 09:45:47;;;;;;;37.83;30.70;;;;;;;-144.22;100.00;60274.75;6074628;29;20243;-68
2022/10/15 09:49:10;;;;;;;36.63;31.20;;;;;;;15.25;100.00;60274.75;6079861;29;20243;-70
2022/10/15 09:52:26;;;;;;;39.87;30.33;;;;;;;-144.22;100.00;60274.75;6078258;29;20235;-69
2022/10/15 09:55:39;;;;;;;38.43;30.70;;;;;;;14.17;100.00;60274.75;6068552;29;20246;-69
2022/10/15 09:58:57;;;;;;;34.83;28.30;;;;;;;188.01;100.00;60274.75;6069117;29;20704;-69
2022/10/15 10:02:16;;;;;;;32.87;27.30;;;;;;;-144.22;100.00;60274.75;6075596;29;20228;-68
2022/10/15 10:05:29;;;;;;;33.30;28.27;;;;;;;188.01;100.00;60274.75;6072248;29;20244;-67
2022/10/15 10:08:39;;;;;;;33.73;28.67;;;;;;;-144.22;100.00;60274.75;6077096;29;20291;-69
2022/10/15 10:11:57;;;;;;;31.17;27.77;;;;;;;-144.22;100.00;60274.75;6075941;29;20736;-69
2022/10/15 10:15:19;;;;;;;35.07;27.93;;;;;;;14.51;100.00;60274.75;6074545;29;20232;-69
2022/10/15 10:18:24;;;;;;;32.30;26.97;;;;;;;14.74;100.00;60274.75;6068364;29;20234;-69
2022/10/15 10:21:35;;;;;;;34.07;28.60;;;;;;;15.25;100.00;60274.75;6081305;29;20598;-68
2022/10/15 10:24:37;;;;;;;34.23;27.53;;;;;;;15.25;100.00;60274.75;6075158;29;20232;-70
2022/10/15 10:27:44;;;;;;;31.10;25.87;;;;;;;-144.22;100.00;60274.75;6077577;29;20228;-70
2022/10/15 10:31:08;;;;;;;33.93;27.70;;;;;;;-144.22;100.00;60274.75;6078074;29;20236;-69
2022/10/15 10:34:16;;;;;;;31.67;25.43;;;;;;;14.59;100.00;60274.75;6077646;29;20236;-69
2022/10/15 10:37:19;;;;;;;33.67;27.43;;;;;;;-144.22;100.00;60274.75;6078491;29;20259;-68
2022/10/15 10:40:34;;;;;;;35.50;28.47;;;;;;;-144.22;100.00;60274.75;6077077;29;20239;-68
2022/10/15 10:43:53;;;;;;;34.97;28.10;;;;;;;14.49;100.00;60274.75;6083642;29;20235;-70
2022/10/15 10:47:22;;;;;;;35.20;28.97;;;;;;;15.25;100.00;60274.75;6079902;29;20236;-66
2022/10/15 10:50:34;;;;;;;35.57;27.77;;;;;;;-144.22;100.00;60274.75;6062843;29;20252;-70
2022/10/15 10:54:03;;;;;;;37.40;28.67;;;;;;;-144.22;100.00;60274.75;6068588;29;20223;-68
2022/10/15 10:57:13;;;;;;;31.80;26.30;;;;;;;-144.22;100.00;60274.75;6080072;29;20224;-68
2022/10/15 11:00:23;;;;;;;39.20;30.80;;;;;;;-144.22;100.00;60274.75;6082925;29;20231;-75
2022/10/15 11:03:32;;;;;;;35.20;28.73;;;;;;;-144.22;100.00;60274.75;6080366;29;20242;-69
2022/10/15 11:06:55;;;;;;;35.13;28.23;;;;;;;16.55;100.00;60274.75;6085150;29;20242;-68
2022/10/15 11:10:03;;;;;;;33.80;28.03;;;;;;;-144.22;100.00;60274.75;6082870;29;20232;-69
2022/10/15 11:13:23;;;;;;;32.10;27.27;;;;;;;-144.22;100.00;60274.75;6078653;29;20576;-71
2022/10/15 11:17:12;;;;;;;30.97;26.37;;;;;;;-144.22;100.00;60274.75;6079078;29;20597;-67
2022/10/15 11:20:46;;;;;;;30.10;24.67;;;;;;;13.75;100.00;60274.75;6071036;29;20307;-69
2022/10/15 11:24:08;;;;;;;29.17;24.03;;;;;;;13.68;100.00;60274.75;6075352;29;20236;-69
2022/10/15 11:27:51;;;;;;;34.50;26.63;;;;;;;-144.22;100.00;60274.75;6076177;29;20239;-72
2022/10/15 11:31:06;;;;;;;30.27;24.50;;;;;;;-144.22;100.00;60274.75;6008777;29;20227;-68
2022/10/15 11:34:24;;;;;;;29.30;24.97;;;;;;;-144.22;100.00;60274.75;6008873;29;20264;-69
2022/10/15 11:37:52;;;;;;;29.77;24.73;;;;;;;-144.22;100.00;60274.75;6005159;29;20609;-66
2022/10/15 11:41:12;;;;;;;30.57;25.87;;;;;;;-144.22;100.00;60274.75;6009910;29;20238;-68
2022/10/15 11:44:23;;;;;;;31.93;25.37;;;;;;;13.45;100.00;60274.75;6003390;29;20230;-68
2022/10/15 11:47:49;;;;;;;30.47;24.87;;;;;;;13.96;100.00;60274.75;6008720;29;20241;-69
2022/10/15 11:51:17;;;;;;;28.47;23.10;;;;;;;-144.22;100.00;60274.75;6008493;29;20237;-70
2022/10/15 11:54:30;;;;;;;28.07;23.03;;;;;;;13.62;100.00;60274.75;6007507;29;20317;-68
2022/10/15 11:57:35;;;;;;;31.77;25.60;;;;;;;-144.22;100.00;60274.75;6004749;29;20263;-70
2022/10/15 12:00:45;;;;;;;33.13;25.87;;;;;;;-144.22;100.00;60274.75;6000830;29;20770;-70
2022/10/15 12:03:57;;;;;;;31.87;24.60;;;;;;;-144.22;100.00;60274.75;5999538;29;20245;-69
2022/10/15 12:07:03;;;;;;;29.87;23.80;;;;;;;-144.22;100.00;60274.75;6068101;29;20264;-68
2022/10/15 12:10:11;;;;;;;27.37;23.40;;;;;;;-144.22;100.00;60274.75;6066605;29;20260;-68
2022/10/15 12:13:58;;;;;;;26.50;23.13;;;;;;;-144.22;100.00;60274.75;6078802;29;20685;-68
2022/10/15 12:17:21;;;;;;;28.03;22.20;;;;;;;-144.22;100.00;60274.75;6066162;29;20258;-68
2022/10/15 12:20:25;;;;;;;30.47;23.97;;;;;;;14.61;100.00;60274.75;6073260;29;20271;-68
2022/10/15 12:23:33;;;;;;;30.13;23.47;;;;;;;13.89;100.00;60274.75;6081816;29;20223;-68
2022/10/15 12:26:37;;;;;;;26.33;23.43;;;;;;;-144.22;100.00;60274.75;6076145;29;20232;-68
2022/10/15 12:29:40;;;;;;;26.33;22.53;;;;;;;-144.22;100.00;60274.75;6081877;29;20674;-67
2022/10/15 12:32:47;;;;;;;24.50;20.43;;;;;;;-144.22;100.00;60274.75;6081907;29;20235;-68
2022/10/15 12:35:56;;;;;;;24.77;21.77;;;;;;;-144.22;100.00;60274.75;6081778;29;20224;-68
2022/10/15 12:39:06;;;;;;;25.70;21.87;;;;;;;-144.22;100.00;60274.75;6078062;29;20220;-69
2022/10/15 12:42:34;;;;;;;26.77;21.93;;;;;;;-144.22;100.00;60274.75;6071079;29;20227;-68
2022/10/15 12:45:40;;;;;;;29.77;23.57;;;;;;;-144.22;100.00;60274.75;6084843;29;20231;-68
2022/10/15 12:48:45;;;;;;;27.63;22.33;;;;;;;13.96;100.00;60274.75;6084928;29;20581;-68
2022/10/15 12:51:47;;;;;;;27.80;24.80;;;;;;;-144.22;100.00;60274.75;6080171;29;20624;-68
2022/10/15 12:55:19;;;;;;;26.53;23.03;;;;;;;13.74;100.00;60274.75;6080271;29;20477;-68
2022/10/15 12:58:41;;;;;;;26.40;22.73;;;;;;;-144.22;100.00;60274.75;6048869;29;20235;-69
2022/10/15 13:01:51;;;;;;;29.23;24.57;;;;;;;-144.22;100.00;60274.75;6073764;29;20575;-69
2022/10/15 13:04:54;;;;;;;25.80;22.77;;;;;;;13.73;100.00;60274.75;6080605;29;20220;-67
2022/10/15 13:07:59;;;;;;;28.60;24.20;;;;;;;-144.22;100.00;60274.75;6081243;29;20706;-68
2022/10/15 13:11:01;;;;;;;27.27;22.67;;;;;;;-144.22;100.00;60274.75;6069917;29;20232;-68
2022/10/15 13:14:18;;;;;;;27.83;24.27;;;;;;;13.80;100.00;60274.75;6061940;29;20239;-67
2022/10/15 13:17:21;;;;;;;24.43;21.63;;;;;;;-144.22;100.00;60274.75;6082193;29;20232;-67
2022/10/15 13:20:32;;;;;;;26.50;22.57;;;;;;;-144.22;100.00;60274.75;6075834;29;20224;-67
2022/10/15 13:23:34;;;;;;;27.70;24.70;;;;;;;-144.22;100.00;60274.75;6063791;29;20248;-67
2022/10/15 13:26:36;;;;;;;28.27;23.03;;;;;;;-144.22;100.00;60274.75;6075048;29;20236;-66
2022/10/15 13:29:38;;;;;;;29.80;23.60;;;;;;;13.80;100.00;60274.75;6078332;29;20231;-67
2022/10/15 13:32:52;;;;;;;25.03;22.40;;;;;;;-144.22;100.00;60274.75;6073735;29;20760;-67
2022/10/15 13:35:54;;;;;;;28.17;25.10;;;;;;;-144.22;100.00;60274.75;6079743;29;20325;-67
2022/10/15 13:39:19;;;;;;;26.40;22.70;;;;;;;-144.22;100.00;60274.75;6081523;29;20246;-67
2022/10/15 13:42:23;;;;;;;24.73;22.13;;;;;;;-144.22;100.00;60274.75;6068975;29;20243;-67
2022/10/15 13:45:26;;;;;;;26.33;23.47;;;;;;;-144.22;100.00;60274.75;6082799;29;20315;-67
2022/10/15 13:48:31;;;;;;;29.73;24.47;;;;;;;-144.22;100.00;60274.75;6080439;29;20262;-67
2022/10/15 13:51:38;;;;;;;29.10;24.23;;;;;;;-144.22;100.00;60274.75;6078604;29;20236;-67
2022/10/15 13:54:44;;;;;;;23.37;20.63;;;;;;;-144.22;100.00;60274.75;6076733;29;20239;-67
2022/10/15 13:57:48;;;;;;;30.43;22.73;;;;;;;13.63;100.00;60274.75;6081317;29;20236;-67
2022/10/15 14:00:57;;;;;;;25.63;22.40;;;;;;;-144.22;100.00;60274.75;6084706;29;20240;-64
2022/10/15 14:04:02;;;;;;;25.93;22.73;;;;;;;-144.22;100.00;60274.75;6076994;29;20231;-67
2022/10/15 14:07:21;;;;;;;24.40;21.80;;;;;;;-144.22;100.00;60274.75;6055553;29;20239;-67
2022/10/15 14:10:25;;;;;;;22.23;19.93;;;;;;;-144.22;100.00;60274.75;6075762;29;20232;-68
2022/10/15 14:13:27;;;;;;;23.17;20.17;;;;;;;-144.22;100.00;60274.75;6075588;29;20851;-67
2022/10/15 14:16:36;;;;;;;28.40;22.57;;;;;;;13.96;100.00;60274.75;6081322;29;20224;-65